Time;durP1;ratioP1;P1;durP2;ratioP2;P2;SDS_P1;SDS_P2;PMS_P1;PMS_P2;Temp;Humidity;BMP_temperature;BMP_pressure;BME280_temperature;BME280_humidity;BME280_pressure;Samples;Min_cycle;Max_cycle;Signal;HPM_P1;HPM_P2
2023/01/02 00:01:29;;;;;;;4.55;1.33;;;;;;;10.87;100.00;101051.47;5057030;27;96875;-30
2023/01/02 00:03:58;;;;;;;3.22;1.55;;;;;;;10.92;100.00;101045.78;5056262;27;99323;-31
2023/01/02 00:06:24;;;;;;;4.32;2.08;;;;;;;10.92;100.00;101038.50;5055118;27;100770;-31
2023/01/02 00:08:49;;;;;;;6.45;1.70;;;;;;;10.94;100.00;101039.28;5055647;27;96625;-30
2023/01/02 00:11:15;;;;;;;3.97;1.35;;;;;;;10.95;100.00;101029.31;5057224;27;96812;-31
2023/01/02 00:13:40;;;;;;;4.30;1.48;;;;;;;10.98;100.00;101032.69;5056564;27;99703;-30
2023/01/02 00:16:05;;;;;;;7.57;1.55;;;;;;;10.99;100.00;101037.16;5056762;27;97794;-31
2023/01/02 00:18:31;;;;;;;6.13;1.45;;;;;;;11.00;100.00;101024.47;5056913;27;96683;-30
2023/01/02 00:21:01;;;;;;;3.03;1.10;;;;;;;11.00;100.00;101019.94;5056961;27;96799;-32
2023/01/02 00:23:27;;;;;;;4.63;1.17;;;;;;;10.99;100.00;101011.91;5054903;27;100068;-30
2023/01/02 00:25:52;;;;;;;2.90;1.63;;;;;;;11.03;100.00;101013.44;5056012;27;97812;-30
2023/01/02 00:28:17;;;;;;;1.65;1.30;;;;;;;11.00;100.00;101011.78;5056459;27;96472;-30
2023/01/02 00:30:43;;;;;;;3.83;1.88;;;;;;;11.02;100.00;101012.59;5056489;27;96786;-31
2023/01/02 00:33:08;;;;;;;2.88;1.67;;;;;;;11.01;100.00;101010.84;5055208;27;105646;-31
2023/01/02 00:35:36;;;;;;;4.55;1.90;;;;;;;11.01;100.00;101007.25;5056257;27;97578;-31
2023/01/02 00:38:02;;;;;;;5.07;2.10;;;;;;;11.00;100.00;101011.78;5054894;27;96832;-30
2023/01/02 00:40:27;;;;;;;3.08;1.63;;;;;;;11.01;100.00;101007.25;5056529;27;96961;-31
2023/01/02 00:42:52;;;;;;;4.35;1.85;;;;;;;10.99;100.00;101007.34;5056350;27;97928;-30
2023/01/02 00:45:18;;;;;;;4.03;1.98;;;;;;;11.02;100.00;101015.28;5056513;27;97814;-30
2023/01/02 00:47:43;;;;;;;2.20;1.50;;;;;;;11.00;100.00;101003.66;5055983;27;96656;-30
2023/01/02 00:50:08;;;;;;;2.15;1.30;;;;;;;11.00;100.00;101005.50;5056260;27;96897;-30
2023/01/02 00:52:34;;;;;;;2.35;1.48;;;;;;;11.01;100.00;101007.25;5055351;27;102596;-30
2023/01/02 00:54:59;;;;;;;2.67;1.55;;;;;;;11.00;100.00;101000.09;5056129;27;97901;-31
2023/01/02 00:57:24;;;;;;;2.92;1.42;;;;;;;11.03;100.00;100997.19;5056489;27;96526;-30
2023/01/02 00:59:50;;;;;;;7.57;2.00;;;;;;;11.04;100.00;101001.66;5056458;27;96810;-30
2023/01/02 01:02:15;;;;;;;4.82;2.33;;;;;;;11.05;100.00;100998.81;5055774;27;97516;-31
2023/01/02 01:04:40;;;;;;;5.07;2.15;;;;;;;11.07;100.00;101001.47;5056057;27;97763;-30
2023/01/02 01:07:05;;;;;;;4.55;1.70;;;;;;;11.04;100.00;100991.69;5056352;27;96454;-31
2023/01/02 01:09:31;;;;;;;4.20;2.00;;;;;;;11.08;100.00;100991.47;5056476;27;96642;-31
2023/01/02 01:11:56;;;;;;;6.35;1.63;;;;;;;11.09;100.00;100979.69;5055857;27;97863;-30
2023/01/02 01:14:22;;;;;;;2.53;1.55;;;;;;;11.05;100.00;100968.16;5055718;27;97759;-31
2023/01/02 01:16:48;;;;;;;5.70;1.88;;;;;;;11.09;100.00;100966.13;5054047;27;96615;-31
2023/01/02 01:19:13;;;;;;;5.35;1.80;;;;;;;11.08;100.00;100967.09;5056160;27;96871;-30
2023/01/02 01:21:38;;;;;;;4.05;1.13;;;;;;;11.10;100.00;100962.44;5055676;27;97649;-30
2023/01/02 01:24:04;;;;;;;4.70;1.60;;;;;;;11.10;100.00;100957.03;5055328;27;99131;-31
2023/01/02 01:26:29;;;;;;;3.97;1.63;;;;;;;11.11;100.00;100956.94;5054944;27;96758;-30
2023/01/02 01:28:55;;;;;;;4.22;1.65;;;;;;;11.11;100.00;100958.75;5056174;27;96762;-33
2023/01/02 01:31:22;;;;;;;7.10;1.70;;;;;;;11.11;100.00;100962.34;5053904;27;100862;-32
2023/01/02 01:33:47;;;;;;;2.90;1.65;;;;;;;11.11;100.00;100956.03;5054100;27;100983;-30
2023/01/02 01:36:19;;;;;;;5.97;1.80;;;;;;;11.14;100.00;100964.00;5055700;27;96496;-32
2023/01/02 01:38:45;;;;;;;3.13;1.48;;;;;;;11.15;100.00;100965.72;5054297;27;96956;-31
2023/01/02 01:41:15;;;;;;;3.58;1.83;;;;;;;11.11;100.00;100965.06;5054976;27;98058;-30
2023/01/02 01:43:50;;;;;;;5.57;1.65;;;;;;;11.14;100.00;100966.72;5053610;27;100944;-30
2023/01/02 01:46:36;;;;;;;2.22;1.15;;;;;;;11.13;100.00;100974.00;5053888;27;96619;-30
2023/01/02 01:49:01;;;;;;;2.38;1.45;;;;;;;11.14;100.00;100975.72;5055779;27;96561;-30
2023/01/02 01:51:29;;;;;;;4.75;1.45;;;;;;;11.11;100.00;100985.84;5054999;27;98914;-30
2023/01/02 01:54:04;;;;;;;4.95;1.90;;;;;;;11.12;100.00;100988.50;5053654;27;101010;-30
2023/01/02 01:56:31;;;;;;;3.08;1.63;;;;;;;11.13;100.00;100975.78;5053936;27;96594;-30
2023/01/02 01:58:57;;;;;;;5.72;1.58;;;;;;;11.13;100.00;100983.94;5054366;27;96598;-30
2023/01/02 02:01:22;;;;;;;3.05;1.50;;;;;;;11.11;100.00;100986.75;5053498;27;100930;-30
2023/01/02 02:03:49;;;;;;;6.95;1.48;;;;;;;11.11;100.00;100991.28;5055178;27;97272;-30
2023/01/02 02:06:16;;;;;;;3.88;2.05;;;;;;;11.12;100.00;101001.19;5054415;27;96609;-30
2023/01/02 02:08:56;;;;;;;3.85;1.85;;;;;;;11.10;100.00;100995.84;5053731;27;96863;-30
2023/01/02 02:11:22;;;;;;;6.45;1.70;;;;;;;11.09;100.00;101004.09;5053573;27;100982;-31
2023/01/02 02:13:49;;;;;;;6.30;1.65;;;;;;;11.10;100.00;101000.41;5053493;27;100733;-33
2023/01/02 02:16:14;;;;;;;3.05;1.33;;;;;;;11.12;100.00;100998.47;5053817;27;96616;-30
2023/01/02 02:19:02;;;;;;;2.70;1.52;;;;;;;11.10;100.00;100998.56;5055177;27;96814;-30
2023/01/02 02:21:50;;;;;;;4.32;1.60;;;;;;;11.11;100.00;101003.03;5023123;27;98930;-31
2023/01/02 02:24:30;;;;;;;3.67;1.70;;;;;;;11.09;100.00;100993.25;5055308;27;97462;-30
2023/01/02 02:27:21;;;;;;;2.35;1.48;;;;;;;11.11;100.00;100996.69;5055069;27;96748;-30
2023/01/02 02:30:06;;;;;;;5.85;1.65;;;;;;;11.13;100.00;100997.50;5053646;27;96746;-32
2023/01/02 02:32:56;;;;;;;2.72;1.55;;;;;;;11.10;100.00;101000.41;5052607;27;101003;-30
2023/01/02 02:35:39;;;;;;;2.47;1.45;;;;;;;11.11;100.00;100994.00;5054610;27;98766;-31
2023/01/02 02:38:22;;;;;;;2.88;1.77;;;;;;;11.12;100.00;100993.91;5054623;27;96806;-29
2023/01/02 02:41:06;;;;;;;1.98;1.30;;;;;;;11.11;100.00;100994.00;5055046;27;96794;-31
2023/01/02 02:43:46;;;;;;;2.95;1.58;;;;;;;11.11;100.00;100989.47;5054329;27;99662;-30
2023/01/02 02:46:21;;;;;;;1.98;1.23;;;;;;;11.13;100.00;100995.66;5053195;27;99853;-31
2023/01/02 02:48:57;;;;;;;5.72;1.92;;;;;;;11.15;100.00;100990.13;5053292;27;96620;-32
2023/01/02 02:51:42;;;;;;;4.05;1.80;;;;;;;11.15;100.00;100982.88;5053769;27;96737;-31
2023/01/02 02:54:13;;;;;;;2.20;1.02;;;;;;;11.17;100.00;100980.06;5054236;27;98982;-31
2023/01/02 02:56:40;;;;;;;5.32;1.45;;;;;;;11.19;100.00;100972.72;5056531;27;100932;-30
2023/01/02 02:59:06;;;;;;;6.85;2.05;;;;;;;11.19;100.00;100973.59;5055975;27;96795;-30
2023/01/02 03:01:32;;;;;;;2.38;1.02;;;;;;;11.23;100.00;100979.72;5058157;27;96786;-31
2023/01/02 03:03:57;;;;;;;3.08;1.58;;;;;;;11.24;100.00;100976.88;5057900;27;98145;-30
2023/01/02 03:06:28;;;;;;;4.82;1.52;;;;;;;11.26;100.00;100974.09;5057629;27;97835;-31
2023/01/02 03:09:21;;;;;;;4.72;1.60;;;;;;;11.26;100.00;100969.53;5056743;27;96702;-31
2023/01/02 03:12:03;;;;;;;1.98;1.30;;;;;;;11.28;100.00;100966.72;5056624;27;96715;-31
2023/01/02 03:14:46;;;;;;;2.33;1.20;;;;;;;11.27;100.00;100965.88;5056292;27;100846;-31
2023/01/02 03:17:27;;;;;;;2.83;1.73;;;;;;;11.26;100.00;100966.81;5058210;27;97290;-30
2023/01/02 03:20:00;;;;;;;7.60;1.63;;;;;;;11.30;100.00;100974.75;5056303;27;96830;-31
2023/01/02 03:22:30;;;;;;;3.38;1.70;;;;;;;11.33;100.00;100970.00;5056081;27;96754;-30
2023/01/02 03:24:57;;;;;;;4.95;1.60;;;;;;;11.34;100.00;100965.47;5055498;27;101134;-30
2023/01/02 03:27:27;;;;;;;4.20;1.45;;;;;;;11.33;100.00;100959.16;5055743;27;100919;-30
2023/01/02 03:30:01;;;;;;;2.03;1.27;;;;;;;11.36;100.00;100963.53;5056208;27;96598;-30
2023/01/02 03:32:31;;;;;;;4.32;1.58;;;;;;;11.36;100.00;100961.69;5056088;27;96958;-30
2023/01/02 03:35:02;;;;;;;3.55;1.60;;;;;;;11.37;100.00;100966.16;5055996;27;100834;-30
2023/01/02 03:37:34;;;;;;;3.13;1.50;;;;;;;11.41;100.00;100970.38;5055692;27;100975;-30
2023/01/02 03:40:07;;;;;;;2.53;1.30;;;;;;;11.43;100.00;100970.31;5056182;27;96625;-30
2023/01/02 03:42:43;;;;;;;4.30;1.70;;;;;;;11.47;100.00;100970.00;5056401;27;96821;-33
2023/01/02 03:45:19;;;;;;;5.13;2.30;;;;;;;11.49;100.00;100980.78;5055693;27;101371;-30
2023/01/02 03:47:50;;;;;;;2.38;1.42;;;;;;;11.51;100.00;100992.38;5055718;27;101933;-30
2023/01/02 03:50:23;;;;;;;3.78;1.55;;;;;;;11.52;100.00;100986.00;5057055;27;96626;-30
2023/01/02 03:52:49;;;;;;;2.25;1.40;;;;;;;11.50;100.00;100987.94;5055833;27;96746;-30
2023/01/02 03:55:15;;;;;;;5.35;1.25;;;;;;;11.51;100.00;100995.09;5056755;27;97458;-30
2023/01/02 03:58:03;;;;;;;3.13;1.45;;;;;;;11.51;100.00;100992.38;5055507;27;100849;-30
2023/01/02 04:00:40;;;;;;;1.25;1.08;;;;;;;11.52;100.00;100990.56;5055853;27;96685;-30
2023/01/02 04:03:11;;;;;;;4.40;1.58;;;;;;;11.52;100.00;100993.28;5055798;27;96806;-32
2023/01/02 04:05:45;;;;;;;4.00;1.50;;;;;;;11.52;100.00;100988.72;5055211;27;100211;-30
2023/01/02 04:08:15;;;;;;;2.13;1.15;;;;;;;11.48;100.00;100989.88;5057051;27;97882;-30
2023/01/02 04:10:43;;;;;;;5.90;1.98;;;;;;;11.47;100.00;100994.44;5057022;27;96785;-31
2023/01/02 04:13:18;;;;;;;6.75;1.65;;;;;;;11.49;100.00;101002.47;5055600;27;96886;-30
2023/01/02 04:15:47;;;;;;;2.83;1.25;;;;;;;11.48;100.00;101007.00;5054798;27;101519;-31
2023/01/02 04:18:22;;;;;;;6.03;1.88;;;;;;;11.48;100.00;101004.28;5054932;27;100774;-31
2023/01/02 04:20:52;;;;;;;5.38;1.45;;;;;;;11.47;100.00;101009.84;5057190;27;96712;-30
2023/01/02 04:23:29;;;;;;;2.92;1.40;;;;;;;11.45;100.00;101009.91;5055198;27;96850;-30
2023/01/02 04:26:04;;;;;;;3.38;1.60;;;;;;;11.46;100.00;101013.50;5056160;27;97505;-30
2023/01/02 04:28:33;;;;;;;2.72;1.67;;;;;;;11.45;100.00;101011.78;5055047;27;100925;-30
2023/01/02 04:31:22;;;;;;;4.47;1.42;;;;;;;11.44;100.00;101010.00;5056666;27;96593;-32
2023/01/02 04:33:52;;;;;;;7.00;2.38;;;;;;;11.41;100.00;101013.78;5055710;27;96823;-31
2023/01/02 04:36:18;;;;;;;5.72;1.80;;;;;;;11.41;100.00;101024.63;5054821;27;100769;-30
2023/01/02 04:38:44;;;;;;;6.97;1.60;;;;;;;11.39;100.00;101020.28;5055098;27;97886;-30
2023/01/02 04:41:25;;;;;;;2.13;1.02;;;;;;;11.41;100.00;101031.91;5054555;27;96809;-31
2023/01/02 04:43:55;;;;;;;2.15;1.33;;;;;;;11.35;100.00;101033.16;5056529;27;96784;-31
2023/01/02 04:46:21;;;;;;;3.38;1.80;;;;;;;11.36;100.00;101051.19;5054680;27;100978;-30
2023/01/02 04:48:46;;;;;;;2.95;1.55;;;;;;;11.34;100.00;101066.66;5054687;27;100805;-30
2023/01/02 04:51:12;;;;;;;2.35;1.70;;;;;;;11.27;100.00;101074.34;5056537;27;96699;-31
2023/01/02 04:53:38;;;;;;;3.13;1.75;;;;;;;11.22;100.00;101094.53;5054812;27;96946;-30
2023/01/02 04:56:03;;;;;;;1.75;1.17;;;;;;;11.12;100.00;101096.06;5055720;27;99271;-30
2023/01/02 04:58:28;;;;;;;1.05;0.70;;;;;;;11.00;100.00;101095.81;5056409;27;97722;-30
2023/01/02 05:00:54;;;;;;;0.85;0.60;;;;;;;10.93;100.00;101109.84;5056161;27;96511;-30
2023/01/02 05:03:19;;;;;;;0.40;0.25;;;;;;;10.82;100.00;101126.72;5056013;27;96897;-31
2023/01/02 05:05:45;;;;;;;0.40;0.40;;;;;;;10.78;100.00;101130.59;5055312;27;97951;-31
2023/01/02 05:08:10;;;;;;;0.60;0.40;;;;;;;10.69;100.00;101141.94;5055537;27;99167;-31
2023/01/02 05:10:35;;;;;;;0.93;0.60;;;;;;;10.67;100.00;101152.00;5056019;27;97097;-30
2023/01/02 05:13:00;;;;;;;0.52;0.30;;;;;;;10.58;100.00;101151.56;5056067;27;96766;-31
2023/01/02 05:15:26;;;;;;;0.80;0.30;;;;;;;10.53;100.00;101160.91;5055635;27;105159;-31
2023/01/02 05:17:51;;;;;;;0.47;0.28;;;;;;;10.47;100.00;101151.28;5055228;27;97763;-30
2023/01/02 05:20:17;;;;;;;1.55;0.70;;;;;;;10.48;100.00;101161.16;5055935;27;96558;-30
2023/01/02 05:25:31;;;;;;;0.30;0.30;;;;;;;10.38;100.00;101165.34;5055739;27;97170;-30
2023/01/02 05:27:56;;;;;;;0.50;0.40;;;;;;;10.35;100.00;101170.94;5054075;27;101426;-30
2023/01/02 05:30:22;;;;;;;0.30;0.30;;;;;;;10.36;100.00;101178.09;5055128;27;96502;-30
2023/01/02 05:32:48;;;;;;;0.82;0.45;;;;;;;10.33;100.00;101191.81;5054280;27;96910;-30
2023/01/02 05:35:13;;;;;;;1.13;0.65;;;;;;;10.34;100.00;101188.13;5053737;27;101026;-30
2023/01/02 05:37:39;;;;;;;1.08;0.70;;;;;;;10.33;100.00;101202.63;5055374;27;97378;-30
2023/01/02 05:40:04;;;;;;;0.50;0.35;;;;;;;10.29;100.00;101215.44;5055791;27;96613;-30
2023/01/02 05:42:30;;;;;;;0.47;0.47;;;;;;;10.21;100.00;101218.56;5055409;27;96824;-30
2023/01/02 05:44:55;;;;;;;1.95;1.02;;;;;;;10.19;100.00;101234.00;5055428;27;98178;-30
2023/01/02 05:47:20;;;;;;;1.40;1.00;;;;;;;10.18;100.00;101236.81;5055478;27;106623;-30
2023/01/02 05:49:46;;;;;;;1.70;1.08;;;;;;;10.19;100.00;101243.97;5053788;27;96704;-30
2023/01/02 05:52:11;;;;;;;1.80;1.10;;;;;;;10.18;100.00;101242.22;5055429;27;96975;-30
2023/01/02 05:54:36;;;;;;;2.15;1.38;;;;;;;10.19;100.00;101252.94;5054360;27;99204;-30
2023/01/02 05:57:02;;;;;;;2.13;1.52;;;;;;;10.17;100.00;101260.28;5055216;27;97777;-30
2023/01/02 05:59:27;;;;;;;3.25;1.65;;;;;;;10.18;100.00;101263.88;5055618;27;96474;-31
2023/01/02 06:01:52;;;;;;;2.35;1.23;;;;;;;10.23;100.00;101278.03;5055356;27;96878;-30
2023/01/02 06:04:18;;;;;;;7.45;1.48;;;;;;;10.19;100.00;101268.31;5055122;27;101306;-31
2023/01/02 06:06:43;;;;;;;3.58;1.92;;;;;;;10.21;100.00;101263.72;5054862;27;97819;-30
2023/01/02 06:09:12;;;;;;;4.18;1.90;;;;;;;10.21;100.00;101277.25;5055490;27;96387;-30
2023/01/02 06:11:38;;;;;;;3.25;1.50;;;;;;;10.14;100.00;101284.81;5054153;27;96931;-30
2023/01/02 06:14:03;;;;;;;2.20;1.48;;;;;;;10.17;100.00;101286.47;5055211;27;97026;-30
2023/01/02 06:16:28;;;;;;;1.88;1.17;;;;;;;10.16;100.00;101291.03;5054874;27;97717;-30
2023/01/02 06:18:54;;;;;;;3.28;1.15;;;;;;;10.11;100.00;101286.81;5054676;27;96553;-31
2023/01/02 06:21:21;;;;;;;1.88;1.45;;;;;;;10.09;100.00;101300.41;5054564;27;98094;-31
2023/01/02 06:23:47;;;;;;;1.92;1.13;;;;;;;10.09;100.00;101305.84;5053183;27;101035;-31
2023/01/02 06:26:15;;;;;;;1.48;1.25;;;;;;;10.09;100.00;101311.25;5054189;27;97412;-30
2023/01/02 06:28:41;;;;;;;3.90;1.77;;;;;;;10.06;100.00;101326.75;5053666;27;96601;-30
2023/01/02 06:31:09;;;;;;;2.90;1.15;;;;;;;10.01;100.00;101324.31;5057999;27;96861;-30
2023/01/02 06:33:35;;;;;;;1.40;0.80;;;;;;;9.99;100.00;101327.09;5056667;27;101121;-31
2023/01/02 06:36:08;;;;;;;6.20;1.00;;;;;;;9.98;100.00;101337.97;5057098;27;101053;-30
2023/01/02 06:38:35;;;;;;;1.75;0.75;;;;;;;9.88;100.00;101342.13;5057440;27;96683;-33
2023/01/02 06:41:01;;;;;;;3.13;0.95;;;;;;;9.86;100.00;101349.44;5057143;27;96845;-30
2023/01/02 06:43:28;;;;;;;2.60;1.38;;;;;;;9.86;100.00;101361.13;5039373;27;101147;-30
2023/01/02 06:45:57;;;;;;;1.35;0.80;;;;;;;9.85;100.00;101363.94;5056736;27;100777;-30
2023/01/02 06:48:22;;;;;;;2.20;0.75;;;;;;;9.85;100.00;101364.81;5056801;27;96583;-30
2023/01/02 06:50:47;;;;;;;0.98;0.63;;;;;;;9.83;100.00;101368.53;5058343;27;96715;-31
2023/01/02 06:53:13;;;;;;;3.67;0.68;;;;;;;9.83;100.00;101371.25;5057833;27;99333;-30
2023/01/02 06:55:39;;;;;;;0.77;0.63;;;;;;;9.82;100.00;101367.66;5056419;27;100755;-31
2023/01/02 06:58:04;;;;;;;0.82;0.60;;;;;;;9.78;100.00;101371.47;5058628;27;96504;-30
2023/01/02 07:00:30;;;;;;;0.90;0.35;;;;;;;9.79;100.00;101378.63;5058578;27;97098;-32
2023/01/02 07:02:55;;;;;;;1.67;0.68;;;;;;;9.81;100.00;101381.25;5057749;27;97987;-30
2023/01/02 07:05:21;;;;;;;1.20;0.75;;;;;;;9.83;100.00;101390.19;5057720;27;99233;-31
2023/01/02 07:07:46;;;;;;;2.17;1.20;;;;;;;9.79;100.00;101401.13;5057616;27;96450;-30
2023/01/02 07:10:11;;;;;;;2.13;1.10;;;;;;;9.77;100.00;101411.19;5058053;27;96835;-30
2023/01/02 07:12:37;;;;;;;2.40;1.30;;;;;;;9.75;100.00;101417.63;5057468;27;99648;-30
2023/01/02 07:15:05;;;;;;;1.63;0.98;;;;;;;9.76;100.00;101422.94;5057538;27;98646;-30
2023/01/02 07:17:31;;;;;;;1.08;0.68;;;;;;;9.69;100.00;101437.72;5056374;27;96648;-30
2023/01/02 07:19:57;;;;;;;1.48;1.02;;;;;;;9.70;100.00;101430.47;5056582;27;96832;-31
2023/01/02 07:22:22;;;;;;;2.47;1.27;;;;;;;9.66;100.00;101440.56;5057304;27;99657;-30
2023/01/02 07:24:48;;;;;;;2.15;1.33;;;;;;;9.61;100.00;101445.34;5057622;27;99186;-30
2023/01/02 07:27:13;;;;;;;2.28;1.40;;;;;;;9.62;100.00;101446.22;5057397;27;96852;-30
2023/01/02 07:29:38;;;;;;;1.38;0.85;;;;;;;9.58;100.00;101453.56;5057694;27;96865;-31
2023/01/02 07:32:03;;;;;;;0.77;0.63;;;;;;;9.52;100.00;101460.16;5056600;27;99381;-30
2023/01/02 07:34:29;;;;;;;2.35;1.17;;;;;;;9.54;100.00;101463.69;5057501;27;97329;-30
2023/01/02 07:36:54;;;;;;;1.98;1.00;;;;;;;9.49;100.00;101484.66;5057271;27;97540;-30
2023/01/02 07:39:21;;;;;;;1.40;0.77;;;;;;;9.46;100.00;101484.81;5057374;27;96892;-30
2023/01/02 07:41:47;;;;;;;1.67;1.00;;;;;;;9.43;100.00;101489.47;5055319;27;101293;-30
2023/01/02 07:44:12;;;;;;;1.10;0.77;;;;;;;9.42;100.00;101499.41;5056937;27;99167;-31
2023/01/02 07:46:37;;;;;;;1.05;0.73;;;;;;;9.42;100.00;101502.13;5057327;27;96570;-30
2023/01/02 07:49:02;;;;;;;1.48;1.17;;;;;;;9.38;99.74;101516.72;5057800;27;96948;-30
2023/01/02 07:51:28;;;;;;;1.30;0.75;;;;;;;9.36;99.71;101524.00;5057537;27;97305;-30
2023/01/02 07:53:54;;;;;;;2.50;0.77;;;;;;;9.35;99.70;101523.16;5056804;27;98941;-30
2023/01/02 07:56:19;;;;;;;1.67;0.68;;;;;;;9.34;99.61;101525.91;5055317;27;96609;-30
2023/01/02 07:58:44;;;;;;;0.55;0.38;;;;;;;9.33;99.38;101538.56;5057287;27;96789;-30
2023/01/02 08:01:11;;;;;;;4.03;0.77;;;;;;;9.31;98.95;101548.56;5056817;27;97862;-30
2023/01/02 08:03:38;;;;;;;1.42;0.47;;;;;;;9.34;99.25;101550.25;5055396;27;101276;-30
2023/01/02 08:06:09;;;;;;;0.35;0.32;;;;;;;9.41;99.63;101567.06;5055648;27;96635;-30
2023/01/02 08:08:35;;;;;;;0.38;0.38;;;;;;;9.34;99.13;101561.97;5055801;27;96764;-30
2023/01/02 08:11:16;;;;;;;1.10;0.22;;;;;;;9.32;98.98;101558.44;5055322;27;100836;-30
2023/01/02 08:13:41;;;;;;;1.38;0.30;;;;;;;9.24;98.23;101579.50;5055448;27;100762;-29
2023/01/02 08:16:09;;;;;;;1.85;0.35;;;;;;;9.25;98.23;101572.31;5056988;27;96554;-30
2023/01/02 08:18:34;;;;;;;2.40;0.50;;;;;;;9.22;98.29;101562.47;5055528;27;96897;-30
2023/01/02 08:21:01;;;;;;;0.65;0.32;;;;;;;9.23;97.98;101564.25;5056168;27;97880;-31
2023/01/02 08:23:26;;;;;;;0.20;0.17;;;;;;;9.24;98.12;101560.59;5054975;27;101322;-30
2023/01/02 08:25:51;;;;;;;0.17;0.10;;;;;;;9.29;98.06;101571.19;5056389;27;96699;-31
2023/01/02 08:28:17;;;;;;;0.10;0.10;;;;;;;9.29;98.10;101579.31;5056416;27;96714;-30
2023/01/02 08:30:42;;;;;;;0.00;0.00;;;;;;;9.24;97.90;101587.63;5056591;27;97858;-32
2023/01/02 08:33:07;;;;;;;1.33;0.50;;;;;;;9.21;97.79;101587.75;5056564;27;97789;-30
2023/01/02 08:35:33;;;;;;;4.68;0.17;;;;;;;9.24;97.87;101602.97;5056832;27;96748;-30
2023/01/02 08:37:58;;;;;;;0.45;0.13;;;;;;;9.24;98.01;101609.25;5056844;27;96734;-30
2023/01/02 08:40:23;;;;;;;0.20;0.17;;;;;;;9.20;98.00;101609.44;5055222;27;97409;-30
2023/01/02 08:42:49;;;;;;;0.25;0.20;;;;;;;9.24;98.25;101614.66;5056269;27;97444;-30
2023/01/02 08:45:15;;;;;;;0.80;0.25;;;;;;;9.17;97.74;101618.56;5054558;27;96564;-31
2023/01/02 08:47:40;;;;;;;0.60;0.32;;;;;;;9.12;97.50;101616.06;5056656;27;96769;-30
2023/01/02 08:50:06;;;;;;;0.40;0.15;;;;;;;9.09;96.95;101621.59;5056198;27;98088;-30
2023/01/02 08:52:31;;;;;;;1.65;0.15;;;;;;;9.13;97.28;101625.06;5055372;27;97792;-31
2023/01/02 08:54:56;;;;;;;0.15;0.15;;;;;;;9.10;97.37;101620.66;5056377;27;96594;-31
2023/01/02 08:57:22;;;;;;;2.45;0.20;;;;;;;9.12;97.39;101631.41;5056134;27;96663;-30
2023/01/02 08:59:47;;;;;;;0.00;0.00;;;;;;;9.09;96.71;101632.41;5055832;27;105413;-30
2023/01/02 09:02:13;;;;;;;0.15;0.03;;;;;;;9.13;97.22;101642.16;5056535;27;97741;-30
2023/01/02 09:04:40;;;;;;;0.35;0.10;;;;;;;9.18;97.55;101650.06;5054734;27;96572;-30
2023/01/02 09:07:05;;;;;;;0.88;0.35;;;;;;;9.18;97.52;101647.38;5054680;27;96819;-30
2023/01/02 09:09:31;;;;;;;4.10;0.28;;;;;;;9.20;97.61;101652.69;5055364;27;98823;-31
2023/01/02 09:11:57;;;;;;;1.95;0.20;;;;;;;9.19;97.51;101659.06;5055928;27;97763;-30
2023/01/02 09:14:22;;;;;;;2.08;0.38;;;;;;;9.17;97.22;101658.25;5054658;27;96619;-30
2023/01/02 09:16:50;;;;;;;0.30;0.10;;;;;;;9.20;97.28;101668.91;5056073;27;96831;-30
2023/01/02 09:19:15;;;;;;;0.00;0.00;;;;;;;9.19;97.44;101665.34;5055665;27;97465;-30
2023/01/02 09:21:41;;;;;;;0.17;0.17;;;;;;;9.18;97.40;101678.94;5055546;27;97876;-30
2023/01/02 09:24:07;;;;;;;2.35;0.17;;;;;;;9.11;97.37;101668.38;5055824;27;96577;-30
2023/01/02 09:26:32;;;;;;;1.30;0.38;;;;;;;9.13;97.77;101673.72;5055598;27;96789;-31
2023/01/02 09:28:57;;;;;;;1.08;0.30;;;;;;;9.07;97.59;101687.47;5055617;27;97951;-30
2023/01/02 09:31:23;;;;;;;0.40;0.13;;;;;;;9.07;97.84;101682.94;5055282;27;99290;-30
2023/01/02 09:33:48;;;;;;;0.77;0.30;;;;;;;9.09;97.92;101681.06;5055087;27;96562;-30
2023/01/02 09:36:18;;;;;;;1.02;0.47;;;;;;;9.08;97.65;101686.53;5055231;27;96759;-31
2023/01/02 09:38:52;;;;;;;2.92;0.65;;;;;;;9.06;98.04;101666.81;5054060;27;100927;-32
2023/01/02 09:41:20;;;;;;;0.35;0.10;;;;;;;9.04;97.77;101679.50;5053768;27;100812;-31
2023/01/02 09:43:51;;;;;;;0.45;0.20;;;;;;;9.00;97.89;101665.22;5054302;27;96582;-30
2023/01/02 09:46:29;;;;;;;5.90;0.30;;;;;;;8.99;97.91;101682.41;5054280;27;96824;-30
2023/01/02 09:48:55;;;;;;;0.10;0.05;;;;;;;8.97;97.71;101675.31;5053976;27;100881;-30
2023/01/02 09:51:20;;;;;;;1.02;0.10;;;;;;;9.04;97.65;101685.78;5055594;27;97918;-30
2023/01/02 09:53:46;;;;;;;3.30;0.20;;;;;;;9.04;97.83;101696.59;5055438;27;96707;-30
2023/01/02 09:56:17;;;;;;;0.65;0.10;;;;;;;9.10;97.66;101703.56;5055663;27;96733;-30
2023/01/02 09:58:55;;;;;;;0.30;0.25;;;;;;;9.06;97.05;101708.22;5053314;27;101399;-30
2023/01/02 10:01:40;;;;;;;0.60;0.17;;;;;;;9.10;97.30;101714.38;5053630;27;101470;-30
2023/01/02 10:04:11;;;;;;;0.00;0.00;;;;;;;9.11;97.08;101730.53;5055420;27;96464;-30
2023/01/02 10:07:03;;;;;;;1.98;0.17;;;;;;;9.08;96.84;101727.97;5055486;27;96810;-31
2023/01/02 10:09:31;;;;;;;0.50;0.28;;;;;;;9.13;96.91;101730.50;5054856;27;99793;-31
2023/01/02 10:12:24;;;;;;;0.98;0.40;;;;;;;9.19;96.70;101730.22;5054844;27;97842;-30
2023/01/02 10:14:57;;;;;;;3.67;0.38;;;;;;;9.18;96.52;101723.06;5053847;27;96639;-30
2023/01/02 10:17:24;;;;;;;0.15;0.08;;;;;;;9.23;96.52;101723.75;5054133;27;96604;-30
2023/01/02 10:20:16;;;;;;;3.03;0.25;;;;;;;9.28;96.21;101710.91;5053532;27;101101;-30
2023/01/02 10:22:48;;;;;;;1.10;0.38;;;;;;;9.32;96.31;101712.53;5053159;27;101101;-30
2023/01/02 10:25:25;;;;;;;2.13;0.25;;;;;;;9.38;96.08;101705.13;5053097;27;96540;-29
2023/01/02 10:28:05;;;;;;;0.10;0.10;;;;;;;9.38;95.81;101705.13;5054846;27;96543;-30
2023/01/02 10:30:39;;;;;;;0.20;0.10;;;;;;;9.42;95.97;101722.97;5054939;27;97468;-31
2023/01/02 10:33:17;;;;;;;2.45;0.40;;;;;;;9.43;95.64;101731.00;5053098;27;100984;-30
2023/01/02 10:35:46;;;;;;;0.43;0.08;;;;;;;9.43;95.46;101731.00;5053590;27;96697;-31
2023/01/02 10:38:14;;;;;;;0.73;0.20;;;;;;;9.46;95.62;101727.28;5053297;27;96772;-30
2023/01/02 10:40:42;;;;;;;0.40;0.20;;;;;;;9.46;95.52;101727.28;5053191;27;101086;-30
2023/01/02 10:43:10;;;;;;;0.35;0.10;;;;;;;9.51;95.67;101728.88;5053524;27;101156;-30
2023/01/02 10:45:36;;;;;;;0.28;0.10;;;;;;;9.57;95.32;101730.41;5053384;27;97180;-30
2023/01/02 10:48:01;;;;;;;0.32;0.32;;;;;;;9.68;94.75;101738.94;5054846;27;96355;-31
2023/01/02 10:50:31;;;;;;;5.28;0.30;;;;;;;9.87;94.79;101738.16;5054114;27;98041;-30
2023/01/02 10:53:25;;;;;;;1.00;0.10;;;;;;;10.38;93.67;101736.75;5052897;27;100881;-30
2023/01/02 10:55:51;;;;;;;2.00;0.47;;;;;;;10.51;91.63;101737.94;5054852;27;96648;-30
2023/01/02 10:58:26;;;;;;;3.50;0.40;;;;;;;10.37;91.64;101740.44;5054557;27;96799;-30
2023/01/02 11:01:12;;;;;;;0.75;0.10;;;;;;;10.18;92.28;101745.78;5052992;27;101374;-30
2023/01/02 11:03:38;;;;;;;3.95;0.43;;;;;;;10.11;92.71;101737.03;5052901;27;100841;-30
2023/01/02 11:06:20;;;;;;;0.20;0.20;;;;;;;10.08;92.83;101748.03;5053111;27;96542;-30
2023/01/02 11:09:18;;;;;;;1.67;0.25;;;;;;;9.99;93.23;101756.53;5053577;27;96888;-30
2023/01/02 11:11:52;;;;;;;1.38;0.20;;;;;;;9.90;93.79;101767.78;5054326;27;98099;-31
2023/01/02 11:14:22;;;;;;;0.25;0.20;;;;;;;9.83;94.36;101769.00;5053952;27;99236;-30
2023/01/02 11:16:49;;;;;;;0.30;0.22;;;;;;;9.74;94.52;101762.16;5054736;27;96686;-30
2023/01/02 11:19:20;;;;;;;0.70;0.32;;;;;;;9.71;95.01;101784.81;5056437;27;96755;-29
2023/01/02 11:21:47;;;;;;;3.90;0.43;;;;;;;9.67;95.49;101790.41;5055731;27;101279;-30
2023/01/02 11:24:18;;;;;;;0.75;0.38;;;;;;;9.64;95.52;101790.53;5056196;27;101246;-30
2023/01/02 11:26:46;;;;;;;4.25;0.55;;;;;;;9.61;95.97;101783.44;5057108;27;96626;-30
2023/01/02 11:29:18;;;;;;;1.70;0.50;;;;;;;9.64;95.96;101783.31;5056252;27;97770;-30
2023/01/02 11:31:50;;;;;;;2.20;0.50;;;;;;;9.59;96.19;101774.50;5056058;27;100846;-30
2023/01/02 11:34:37;;;;;;;2.50;0.40;;;;;;;9.61;96.06;101764.50;5057932;27;97908;-30